Time;durP1;ratioP1;P1;durP2;ratioP2;P2;SDS_P1;SDS_P2;PMS_P1;PMS_P2;Temp;Humidity;BMP_temperature;BMP_pressure;BME280_temperature;BME280_humidity;BME280_pressure;Samples;Min_cycle;Max_cycle;Signal;HPM_P1;HPM_P2
2021/03/14 00:00:44;;;;;;;10.32;2.17;;;;;;;9.01;55.63;100246.56;5062051;28;20035;-82
2021/03/14 00:03:12;;;;;;;8.77;1.75;;;;;;;9.06;55.45;100249.13;5057945;28;20036;-82
2021/03/14 00:05:41;;;;;;;11.70;1.70;;;;;;;8.78;56.05;100247.09;5060592;28;20388;-82
2021/03/14 00:08:10;;;;;;;9.77;2.85;;;;;;;8.95;55.84;100259.03;5066980;28;20071;-82
2021/03/14 00:10:39;;;;;;;11.90;3.35;;;;;;;8.92;55.72;100257.34;5054432;28;20060;-84
2021/03/14 00:13:06;;;;;;;13.13;2.38;;;;;;;9.05;55.54;100271.16;5057584;28;20385;-87
2021/03/14 00:15:32;;;;;;;12.18;3.53;;;;;;;8.97;55.61;100260.78;5051277;28;20368;-86
2021/03/14 00:17:59;;;;;;;10.18;2.45;;;;;;;8.89;55.74;100274.13;5061604;28;20036;-82
2021/03/14 00:20:25;;;;;;;11.52;2.00;;;;;;;9.04;55.54;100265.00;5054523;28;20064;-84
2021/03/14 00:22:52;;;;;;;10.77;2.05;;;;;;;9.06;56.15;100276.41;5059289;28;20033;-82
2021/03/14 00:25:20;;;;;;;13.45;2.55;;;;;;;9.10;55.77;100276.31;5058311;28;20030;-87
2021/03/14 00:27:47;;;;;;;14.90;2.55;;;;;;;8.92;56.24;100286.41;5041654;28;20041;-83
2021/03/14 00:30:16;;;;;;;19.00;2.63;;;;;;;9.19;55.80;100281.41;5059457;28;20461;-83
2021/03/14 00:32:43;;;;;;;9.48;1.98;;;;;;;9.11;55.39;100288.63;5054342;28;20091;-85
2021/03/14 00:35:15;;;;;;;20.15;2.78;;;;;;;9.12;56.36;100285.09;5060456;28;20040;-89
2021/03/14 00:37:42;;;;;;;8.65;2.10;;;;;;;9.07;56.27;100293.13;5055282;28;20063;-87
2021/03/14 00:40:09;;;;;;;13.45;2.05;;;;;;;8.94;56.07;100312.81;5052963;28;20029;-82
2021/03/14 00:42:36;;;;;;;13.35;2.42;;;;;;;8.97;55.84;100303.06;5041626;28;20059;-85
2021/03/14 00:45:06;;;;;;;13.52;2.70;;;;;;;9.01;55.84;100310.00;5054906;28;20033;-82
2021/03/14 00:47:34;;;;;;;13.55;2.00;;;;;;;9.07;55.47;100325.72;5057729;28;20063;-81
2021/03/14 00:50:00;;;;;;;19.88;3.42;;;;;;;9.04;55.62;100315.19;5048795;28;20033;-82
2021/03/14 00:52:27;;;;;;;12.82;2.08;;;;;;;9.17;55.90;100321.09;5043195;28;20067;-82
2021/03/14 00:54:54;;;;;;;16.45;2.67;;;;;;;9.07;56.39;100324.81;5046049;28;20108;-82
2021/03/14 00:57:20;;;;;;;9.50;1.83;;;;;;;9.14;56.32;100331.72;5045093;28;20091;-83
2021/03/14 00:59:47;;;;;;;17.58;5.28;;;;;;;9.13;56.09;100321.19;5045032;28;20025;-87
2021/03/14 01:02:13;;;;;;;16.30;2.28;;;;;;;9.25;56.42;100336.78;5043614;28;20056;-83
2021/03/14 01:04:40;;;;;;;13.10;2.33;;;;;;;9.19;56.08;100331.63;5045330;28;20085;-83
2021/03/14 01:07:07;;;;;;;14.18;2.88;;;;;;;9.01;56.86;100346.09;5041417;28;20022;-82
2021/03/14 01:09:33;;;;;;;11.27;2.50;;;;;;;8.98;56.66;100362.91;5045371;28;20066;-82
2021/03/14 01:12:00;;;;;;;11.35;2.70;;;;;;;9.14;56.68;100346.72;5040921;28;20047;-83
2021/03/14 01:14:27;;;;;;;11.43;2.30;;;;;;;8.98;56.79;100349.69;5044183;28;20071;-82
2021/03/14 01:17:04;;;;;;;18.50;2.45;;;;;;;9.03;56.32;100350.47;5042381;28;20383;-82
2021/03/14 01:19:41;;;;;;;15.82;2.20;;;;;;;8.99;56.36;100356.72;5044631;28;20075;-84
2021/03/14 01:22:16;;;;;;;8.50;3.17;;;;;;;9.01;56.48;100359.31;5043559;28;21465;-80
2021/03/14 01:24:43;;;;;;;15.23;2.63;;;;;;;8.91;56.61;100363.94;5044409;28;20065;-82
2021/03/14 01:27:09;;;;;;;13.80;2.55;;;;;;;8.72;56.66;100361.69;5042288;28;20029;-82
2021/03/14 01:29:39;;;;;;;15.52;2.20;;;;;;;8.86;55.73;100364.03;5041741;28;20550;-82
2021/03/14 01:32:06;;;;;;;19.13;3.95;;;;;;;8.86;55.78;100368.44;5043936;28;20116;-81
2021/03/14 01:34:42;;;;;;;10.90;2.60;;;;;;;8.91;56.17;100369.22;5043956;28;20029;-91
2021/03/14 01:37:09;;;;;;;10.32;2.33;;;;;;;8.98;56.24;100381.38;5007193;28;20053;-82
2021/03/14 01:39:36;;;;;;;16.88;3.25;;;;;;;9.02;55.69;100382.19;5042455;28;20021;-82
2021/03/14 01:42:02;;;;;;;14.82;2.10;;;;;;;8.82;56.43;100383.50;5042789;28;20021;-82
2021/03/14 01:44:29;;;;;;;15.57;2.83;;;;;;;9.04;56.12;100380.41;5044814;28;20385;-82
2021/03/14 01:46:55;;;;;;;14.50;2.42;;;;;;;9.04;55.50;100383.91;5044595;28;20468;-83
2021/03/14 01:49:22;;;;;;;12.05;3.28;;;;;;;9.03;55.98;100387.47;5041802;28;20389;-82
2021/03/14 01:51:49;;;;;;;9.05;2.42;;;;;;;8.96;56.10;100388.50;5043881;28;20119;-82
2021/03/14 01:54:16;;;;;;;14.10;2.40;;;;;;;8.94;56.08;100390.28;5042743;28;20435;-83
2021/03/14 01:56:43;;;;;;;14.77;2.70;;;;;;;8.82;56.25;100396.72;5043780;28;20041;-83
2021/03/14 01:59:10;;;;;;;14.73;2.35;;;;;;;8.85;56.54;100393.13;5043513;28;20021;-83
2021/03/14 02:01:37;;;;;;;15.07;2.63;;;;;;;8.97;55.93;100395.53;5021864;28;20079;-83
2021/03/14 02:04:03;;;;;;;16.55;2.85;;;;;;;9.01;55.45;100399.84;5040521;28;20032;-82
2021/03/14 02:06:30;;;;;;;16.85;3.17;;;;;;;9.00;55.86;100398.09;5039963;28;20109;-82
2021/03/14 02:08:57;;;;;;;16.23;2.42;;;;;;;8.89;56.02;100400.94;5050064;28;20041;-82
2021/03/14 02:11:28;;;;;;;10.50;2.47;;;;;;;9.02;55.71;100400.69;5040585;28;20053;-82
2021/03/14 02:13:58;;;;;;;15.75;3.33;;;;;;;8.88;56.33;100419.47;5038070;28;20029;-82
2021/03/14 02:16:29;;;;;;;15.02;3.30;;;;;;;8.90;55.95;100423.81;5039929;28;20449;-82
2021/03/14 02:19:00;;;;;;;11.90;2.45;;;;;;;8.85;56.43;100424.84;5031794;28;20060;-82
2021/03/14 02:21:32;;;;;;;11.48;2.88;;;;;;;9.09;55.63;100422.59;5043535;28;20025;-83
2021/03/14 02:29:29;;;;;;;15.32;3.42;;;;;;;9.01;55.61;100436.84;5086141;27;20400;-82
2021/03/14 02:31:56;;;;;;;12.38;2.42;;;;;;;9.01;55.92;100436.84;5067587;28;20032;-82
2021/03/14 02:34:29;;;;;;;15.52;3.35;;;;;;;8.93;56.92;100433.47;5053158;28;20106;-82
2021/03/14 02:36:58;;;;;;;11.10;2.38;;;;;;;8.91;57.10;100440.56;5050623;28;20025;-82
2021/03/14 02:39:26;;;;;;;14.38;2.90;;;;;;;8.92;56.70;100439.66;5048848;28;20080;-82
2021/03/14 02:41:56;;;;;;;16.27;2.53;;;;;;;9.03;56.29;100439.44;5042877;28;20417;-83
2021/03/14 02:44:28;;;;;;;13.13;2.83;;;;;;;9.05;57.09;100435.88;5047522;28;20033;-83
2021/03/14 02:46:56;;;;;;;17.08;2.45;;;;;;;8.97;57.27;100440.44;5050180;28;20103;-82
2021/03/14 02:49:23;;;;;;;15.27;2.60;;;;;;;9.07;56.56;100455.22;5050505;28;20099;-82
2021/03/14 02:51:50;;;;;;;12.90;3.22;;;;;;;8.88;57.25;100451.19;5050299;28;20395;-82
2021/03/14 02:54:18;;;;;;;13.00;2.50;;;;;;;8.84;57.96;100452.16;5048378;28;20052;-81
2021/03/14 02:56:48;;;;;;;10.68;2.90;;;;;;;8.91;57.35;100453.78;5050185;28;20029;-82
2021/03/14 02:59:18;;;;;;;15.98;2.83;;;;;;;8.98;56.98;100458.03;5049949;28;20029;-82
2021/03/14 03:01:46;;;;;;;20.55;2.72;;;;;;;8.93;57.65;100459.88;5050094;28;20040;-82
2021/03/14 03:04:17;;;;;;;13.88;3.30;;;;;;;8.84;57.92;100460.94;5049553;28;20041;-82
2021/03/14 03:06:44;;;;;;;12.50;2.70;;;;;;;8.98;57.24;100462.44;5049878;28;20025;-82
2021/03/14 03:09:13;;;;;;;11.13;2.40;;;;;;;8.92;57.64;100470.50;5049892;28;20061;-82
2021/03/14 03:11:41;;;;;;;12.38;1.95;;;;;;;8.90;57.50;100470.53;5050082;28;20022;-82
2021/03/14 03:14:11;;;;;;;18.73;4.18;;;;;;;8.85;58.03;100482.97;5047961;28;20030;-83
2021/03/14 03:16:40;;;;;;;14.88;2.63;;;;;;;8.92;57.80;100479.28;5049839;28;20530;-82
2021/03/14 03:19:10;;;;;;;17.90;3.53;;;;;;;8.85;58.22;100478.53;5049581;28;20032;-82
2021/03/14 03:21:45;;;;;;;11.10;2.15;;;;;;;8.78;58.64;100487.47;5049766;28;20025;-91
2021/03/14 03:24:13;;;;;;;11.65;3.15;;;;;;;8.84;58.23;100483.84;5037792;28;20108;-82
2021/03/14 03:26:43;;;;;;;16.95;3.05;;;;;;;8.95;58.30;100491.56;5048472;28;20017;-82
2021/03/14 03:29:10;;;;;;;15.00;2.80;;;;;;;8.82;58.55;100488.28;5049130;28;20033;-82
2021/03/14 03:31:38;;;;;;;14.07;2.30;;;;;;;8.73;58.73;100484.94;5048299;28;20029;-82
2021/03/14 03:34:06;;;;;;;7.18;1.48;;;;;;;8.52;59.52;100488.81;5047161;28;20115;-82
2021/03/14 03:36:33;;;;;;;8.15;1.80;;;;;;;8.75;58.57;100492.81;5049185;28;20034;-83
2021/03/14 03:39:01;;;;;;;7.75;1.92;;;;;;;8.53;58.40;100503.75;5045346;28;20116;-82
2021/03/14 03:41:29;;;;;;;17.88;2.20;;;;;;;8.53;58.75;100497.59;5036062;28;20025;-82
2021/03/14 03:43:58;;;;;;;9.95;2.13;;;;;;;8.66;58.36;100499.13;5035319;28;20033;-82
2021/03/14 03:46:25;;;;;;;8.88;1.83;;;;;;;8.72;58.72;100499.03;5035740;28;20033;-82
2021/03/14 03:48:56;;;;;;;13.23;2.00;;;;;;;8.78;58.72;100507.75;5036011;28;20065;-82
2021/03/14 03:51:26;;;;;;;20.42;3.08;;;;;;;8.64;60.44;100516.78;5036115;28;20030;-83
2021/03/14 03:53:55;;;;;;;12.23;2.53;;;;;;;8.42;62.00;100522.38;5035149;28;20096;-83
2021/03/14 03:56:23;;;;;;;15.88;2.95;;;;;;;8.26;63.06;100547.25;5034367;28;20055;-83
2021/03/14 03:58:52;;;;;;;16.83;3.60;;;;;;;8.19;63.87;100546.50;5024990;28;20029;-84
2021/03/14 04:01:19;;;;;;;13.88;3.40;;;;;;;7.77;64.89;100546.22;5035727;28;20036;-84
2021/03/14 04:03:47;;;;;;;13.07;2.25;;;;;;;7.75;65.12;100551.50;5030671;28;20030;-85
2021/03/14 04:06:16;;;;;;;10.93;2.35;;;;;;;7.92;64.66;100548.66;5035537;28;20428;-86
2021/03/14 04:08:45;;;;;;;12.38;2.78;;;;;;;8.01;64.83;100547.66;5035309;28;20037;-85
2021/03/14 04:11:15;;;;;;;8.75;2.15;;;;;;;7.83;66.30;100547.91;5035314;28;20040;-85
2021/03/14 04:13:44;;;;;;;13.13;2.10;;;;;;;7.83;65.95;100559.31;5035463;28;20017;-84
2021/03/14 04:16:12;;;;;;;6.43;2.40;;;;;;;7.90;65.42;100552.19;5034377;28;20082;-85
2021/03/14 04:18:40;;;;;;;9.35;2.20;;;;;;;7.63;67.56;100550.78;5035161;28;20473;-85
2021/03/14 04:21:10;;;;;;;11.88;2.63;;;;;;;7.55;67.43;100558.78;5035215;28;20030;-85
2021/03/14 04:23:40;;;;;;;7.80;2.22;;;;;;;7.75;66.93;100555.88;5035239;28;20396;-85
2021/03/14 04:26:07;;;;;;;10.77;2.90;;;;;;;7.60;67.25;100572.78;5034525;28;20033;-84
2021/03/14 04:28:36;;;;;;;11.40;2.85;;;;;;;7.69;67.82;100562.13;5035144;28;20045;-85
2021/03/14 04:31:03;;;;;;;13.40;2.80;;;;;;;7.70;67.00;100574.44;5034690;28;20160;-84
2021/03/14 04:33:31;;;;;;;8.02;3.03;;;;;;;7.76;67.42;100566.44;5035184;28;20032;-85
2021/03/14 04:36:00;;;;;;;8.48;2.50;;;;;;;7.59;68.12;100581.59;5034494;28;20037;-83
2021/03/14 04:38:27;;;;;;;8.57;2.50;;;;;;;7.76;67.13;100573.47;5034398;28;20036;-85
2021/03/14 04:40:56;;;;;;;13.48;2.75;;;;;;;7.81;66.75;100590.09;5034950;28;20366;-85
2021/03/14 04:43:24;;;;;;;8.93;2.63;;;;;;;7.83;66.97;100590.09;5034642;28;20072;-85
2021/03/14 04:45:52;;;;;;;17.98;3.10;;;;;;;7.86;66.89;100587.41;5032213;28;20111;-85
2021/03/14 04:48:20;;;;;;;10.05;2.80;;;;;;;7.73;67.28;100587.56;5034836;28;20038;-84
2021/03/14 04:50:48;;;;;;;13.23;2.13;;;;;;;7.74;66.91;100596.38;5033610;28;20018;-84
2021/03/14 04:53:15;;;;;;;12.65;2.60;;;;;;;7.86;66.99;100600.59;5033186;28;20531;-83
2021/03/14 04:55:43;;;;;;;11.35;2.15;;;;;;;7.90;67.01;100602.28;5028372;28;20080;-85
2021/03/14 04:58:14;;;;;;;18.58;2.72;;;;;;;7.84;67.39;100602.38;5034153;28;20023;-83
2021/03/14 05:00:42;;;;;;;12.50;2.30;;;;;;;7.93;66.61;100607.56;5034278;28;20101;-84
2021/03/14 05:03:13;;;;;;;14.18;2.38;;;;;;;7.92;66.96;100608.44;5034415;28;20025;-84
2021/03/14 05:05:42;;;;;;;8.38;2.10;;;;;;;7.93;67.26;100618.09;5034017;28;20025;-84
2021/03/14 05:08:12;;;;;;;13.27;2.30;;;;;;;7.99;66.99;100623.31;5034183;28;20044;-84
2021/03/14 05:10:40;;;;;;;12.85;2.45;;;;;;;7.89;67.30;100622.53;5034217;28;20057;-84
2021/03/14 05:13:06;;;;;;;17.05;2.80;;;;;;;8.06;66.68;100627.63;5034164;28;20021;-85
2021/03/14 05:15:33;;;;;;;18.33;2.50;;;;;;;8.13;66.47;100627.53;5034322;28;20030;-84
2021/03/14 05:18:01;;;;;;;19.42;3.78;;;;;;;8.07;66.85;100632.00;5034098;28;20041;-85
2021/03/14 05:20:28;;;;;;;15.38;2.97;;;;;;;8.15;66.58;100638.91;5034050;28;20069;-84
2021/03/14 05:22:56;;;;;;;13.38;2.47;;;;;;;8.23;66.24;100642.34;5034179;28;20017;-85
2021/03/14 05:25:23;;;;;;;16.83;2.30;;;;;;;8.19;66.55;100644.16;5034212;28;20384;-84
2021/03/14 05:27:52;;;;;;;15.25;2.85;;;;;;;8.23;66.66;100653.75;5033768;28;20087;-84
2021/03/14 05:32:58;;;;;;;10.00;2.20;;;;;;;8.11;67.06;100653.91;5062551;27;20430;-85
2021/03/14 05:35:27;;;;;;;19.67;3.40;;;;;;;8.25;66.61;100662.53;5050745;28;20395;-85
2021/03/14 05:37:55;;;;;;;21.90;3.05;;;;;;;8.37;66.00;100650.97;5050930;28;20029;-84
2021/03/14 05:40:23;;;;;;;13.20;2.80;;;;;;;8.41;66.39;100662.31;5066562;28;20041;-85
2021/03/14 05:42:50;;;;;;;16.45;2.95;;;;;;;8.30;66.69;100669.50;5034478;28;20025;-85
2021/03/14 05:45:18;;;;;;;13.23;2.92;;;;;;;8.33;66.22;100670.34;5050826;28;20034;-86
2021/03/14 05:47:45;;;;;;;11.32;2.78;;;;;;;8.40;66.05;100677.28;5049884;28;20025;-84
2021/03/14 05:50:16;;;;;;;14.32;3.20;;;;;;;8.29;66.67;100673.94;5050345;28;20037;-84
2021/03/14 05:52:44;;;;;;;17.70;2.55;;;;;;;8.21;66.60;100675.78;5049793;28;20032;-86
2021/03/14 05:55:15;;;;;;;18.38;3.20;;;;;;;8.25;66.18;100694.22;5050144;28;20026;-85
2021/03/14 05:57:44;;;;;;;18.98;2.83;;;;;;;8.24;66.24;100696.88;5051378;28;20033;-87
2021/03/14 06:00:15;;;;;;;11.15;2.63;;;;;;;8.31;65.88;100695.91;5051986;28;20029;-86
2021/03/14 06:02:44;;;;;;;17.23;3.20;;;;;;;8.19;66.09;100694.28;5051497;28;20052;-85
2021/03/14 06:05:13;;;;;;;12.35;3.58;;;;;;;8.34;66.22;100700.28;5051351;28;20108;-85
2021/03/14 06:07:40;;;;;;;13.75;3.28;;;;;;;8.36;65.43;100704.66;5050880;28;20387;-85
2021/03/14 06:10:07;;;;;;;16.67;3.53;;;;;;;8.31;65.83;100714.41;5049779;28;20029;-85
2021/03/14 06:12:34;;;;;;;11.98;3.00;;;;;;;8.28;66.18;100714.41;5047382;28;20040;-85
2021/03/14 06:15:00;;;;;;;10.18;2.70;;;;;;;8.43;65.16;100715.97;5049455;28;20033;-86
2021/03/14 06:17:28;;;;;;;11.93;2.85;;;;;;;8.43;65.04;100714.19;5049501;28;20061;-86
2021/03/14 06:19:55;;;;;;;14.25;3.53;;;;;;;8.39;65.88;100731.00;5049923;28;20025;-84
2021/03/14 06:22:24;;;;;;;7.70;2.72;;;;;;;8.39;65.76;100732.78;5048021;28;20026;-85
2021/03/14 06:24:52;;;;;;;15.95;3.20;;;;;;;8.46;65.68;100728.28;5048217;28;20395;-85
2021/03/14 06:27:32;;;;;;;16.83;4.35;;;;;;;8.46;65.41;100744.13;5049702;28;20055;-86
2021/03/14 06:29:59;;;;;;;15.90;4.07;;;;;;;8.37;65.97;100743.34;5049300;28;20036;-86
2021/03/14 06:32:27;;;;;;;9.23;2.95;;;;;;;8.36;65.30;100749.53;5046572;28;20562;-84
2021/03/14 06:35:15;;;;;;;9.65;3.30;;;;;;;8.61;65.40;100758.91;5048633;28;20025;-85
2021/03/14 06:37:43;;;;;;;17.92;3.38;;;;;;;8.42;65.72;100778.50;5048695;28;20066;-85
2021/03/14 06:40:13;;;;;;;14.40;3.30;;;;;;;8.57;65.48;100769.53;5047978;28;20029;-85
2021/03/14 06:42:40;;;;;;;14.43;3.78;;;;;;;8.51;65.14;100779.28;5042786;28;20455;-88
2021/03/14 06:47:49;;;;;;;17.08;3.70;;;;;;;8.55;65.62;100786.31;5069225;28;20503;-88
2021/03/14 06:50:37;;;;;;;16.85;4.68;;;;;;;8.65;65.56;100787.91;5066588;28;20029;-90
2021/03/14 06:53:22;;;;;;;13.30;5.43;;;;;;;8.73;64.69;100795.75;5063179;28;20028;-85
2021/03/14 06:56:02;;;;;;;16.13;4.43;;;;;;;8.67;65.50;100796.72;5070308;28;20392;-87
2021/03/14 06:58:32;;;;;;;15.27;4.90;;;;;;;8.60;65.41;100800.31;5067655;28;20024;-90
2021/03/14 07:03:54;;;;;;;16.75;5.22;;;;;;;8.68;65.19;100808.13;5103478;27;20378;-90
2021/03/14 07:06:23;;;;;;;18.35;4.68;;;;;;;8.64;65.88;100820.50;5111239;28;20031;-90
2021/03/14 07:14:24;;;;;;;26.88;6.18;;;;;;;8.75;65.34;100836.22;5015346;28;20476;-90
2021/03/14 07:19:33;;;;;;;13.75;5.47;;;;;;;8.72;65.37;100841.53;5083763;28;20457;-90
2021/03/14 07:22:10;;;;;;;16.92;5.88;;;;;;;8.77;65.10;100852.06;5066085;28;20040;-89
2021/03/14 07:24:38;;;;;;;17.52;6.32;;;;;;;8.75;65.85;100841.50;5053828;28;20477;-90
2021/03/14 07:27:07;;;;;;;25.17;6.95;;;;;;;8.92;65.11;100853.63;5050535;28;20025;-90
2021/03/14 07:29:34;;;;;;;24.08;6.65;;;;;;;8.93;65.36;100855.38;5047390;28;20029;-89
2021/03/14 07:32:03;;;;;;;19.02;6.50;;;;;;;8.99;64.90;100857.94;5050691;28;20528;-90
2021/03/14 07:34:30;;;;;;;14.55;6.07;;;;;;;8.90;65.37;100857.16;5048574;28;20476;-86
2021/03/14 07:36:57;;;;;;;17.30;7.32;;;;;;;8.87;65.09;100866.88;5049350;28;20071;-88
2021/03/14 07:39:23;;;;;;;15.82;5.97;;;;;;;8.87;65.17;100874.81;5050502;28;20064;-88
2021/03/14 07:41:51;;;;;;;16.70;5.82;;;;;;;8.95;65.17;100880.00;5048584;28;20041;-88
2021/03/14 07:44:19;;;;;;;22.30;6.75;;;;;;;8.89;65.50;100884.47;5047645;28;20480;-87
2021/03/14 07:46:46;;;;;;;20.48;6.40;;;;;;;8.79;65.65;100895.19;5050010;28;20036;-89
2021/03/14 07:49:16;;;;;;;14.60;5.53;;;;;;;9.01;65.25;100898.41;5048969;28;20036;-88
2021/03/14 07:51:45;;;;;;;16.15;5.13;;;;;;;9.03;65.52;100894.00;5049621;28;20104;-88
2021/03/14 07:54:16;;;;;;;12.85;4.90;;;;;;;8.97;65.22;100908.19;5049600;28;20424;-89
2021/03/14 07:56:46;;;;;;;18.77;5.20;;;;;;;9.00;64.90;100916.06;5048369;28;20030;-90
2021/03/14 07:59:12;;;;;;;13.95;5.22;;;;;;;9.23;64.27;100912.22;5049872;28;20029;-89
2021/03/14 08:01:42;;;;;;;19.77;6.07;;;;;;;9.31;64.88;100920.06;5048091;28;20033;-87
2021/03/14 08:04:32;;;;;;;21.65;5.43;;;;;;;9.28;64.91;100933.34;5050310;28;20045;-91
2021/03/14 08:06:59;;;;;;;17.40;5.70;;;;;;;9.17;64.83;100928.16;5047135;28;20030;-87
2021/03/14 08:09:43;;;;;;;12.60;4.68;;;;;;;9.27;64.97;100935.13;5049759;28;20022;-92
2021/03/14 08:12:27;;;;;;;24.92;4.97;;;;;;;9.38;64.80;100934.94;5034780;28;20052;-86
2021/03/14 08:14:56;;;;;;;13.93;4.63;;;;;;;9.28;65.01;100936.84;5042962;28;20026;-85
2021/03/14 08:17:33;;;;;;;17.40;4.50;;;;;;;9.19;64.41;100950.19;5049319;28;20709;-85
2021/03/14 08:19:59;;;;;;;17.38;4.45;;;;;;;9.25;64.90;100960.69;5049310;28;20384;-85
2021/03/14 08:28:21;;;;;;;11.10;3.70;;;;;;;9.65;63.98;100956.63;5077223;27;20905;-84
2021/03/14 08:30:50;;;;;;;12.20;3.80;;;;;;;9.60;64.34;100964.63;5077659;28;20055;-83
2021/03/14 08:36:00;;;;;;;16.08;3.95;;;;;;;9.81;62.92;100973.16;5089413;27;20416;-84
2021/03/14 08:44:03;;;;;;;22.48;4.50;;;;;;;9.65;63.50;100991.88;5023497;27;760326;-86
2021/03/14 08:49:29;;;;;;;15.52;4.20;;;;;;;9.76;63.20;100993.50;5021609;28;751835;-84
2021/03/14 08:51:56;;;;;;;12.13;3.40;;;;;;;9.86;62.91;100992.50;5047023;28;20080;-84
2021/03/14 08:54:29;;;;;;;13.40;3.38;;;;;;;10.00;62.65;101001.09;5053376;28;20472;-85
2021/03/14 08:56:57;;;;;;;20.20;3.60;;;;;;;10.04;62.24;101002.81;5038188;28;20120;-83
2021/03/14 08:59:24;;;;;;;17.25;3.35;;;;;;;9.77;62.28;101009.38;5040027;28;20131;-85
2021/03/14 09:01:54;;;;;;;11.95;3.33;;;;;;;9.87;62.37;101012.78;5040778;28;20033;-84
2021/03/14 09:04:23;;;;;;;17.08;4.07;;;;;;;9.93;62.25;101009.16;5038982;28;20029;-85
2021/03/14 09:06:50;;;;;;;15.52;3.78;;;;;;;9.92;62.26;101010.94;5039868;28;20587;-84
2021/03/14 09:09:21;;;;;;;9.43;2.80;;;;;;;9.91;62.14;101011.81;5044799;28;20044;-85
2021/03/14 09:17:11;;;;;;;13.40;2.95;;;;;;;9.76;61.67;101033.19;5068559;28;20396;-85
2021/03/14 09:22:26;;;;;;;16.27;2.60;;;;;;;10.15;61.27;101029.09;5081300;28;20458;-83
2021/03/14 09:24:57;;;;;;;15.27;3.38;;;;;;;10.15;61.11;101041.47;5059671;28;20036;-84
2021/03/14 09:33:03;;;;;;;12.23;3.13;;;;;;;9.86;61.09;101053.38;5106007;27;20384;-84
2021/03/14 09:35:34;;;;;;;13.93;3.30;;;;;;;10.34;60.60;101052.66;5087713;28;20043;-84
2021/03/14 09:40:45;;;;;;;17.45;3.85;;;;;;;10.23;60.80;101081.06;5078888;27;20417;-85
2021/03/14 09:43:28;;;;;;;12.18;2.88;;;;;;;10.51;60.30;101070.97;5063001;28;20044;-85
2021/03/14 09:48:35;;;;;;;17.35;3.05;;;;;;;10.31;59.95;101084.50;5080910;27;20414;-85
2021/03/14 09:53:43;;;;;;;18.48;3.08;;;;;;;10.13;59.45;101085.63;5100013;27;20379;-81
2021/03/14 09:56:13;;;;;;;16.25;2.95;;;;;;;10.30;59.46;101085.38;5088240;28;20039;-88
2021/03/14 09:58:40;;;;;;;16.80;2.72;;;;;;;10.32;59.50;101087.09;5088943;28;20082;-82
2021/03/14 10:01:09;;;;;;;14.82;2.53;;;;;;;10.48;59.38;101081.59;5088356;28;20035;-82
2021/03/14 10:03:37;;;;;;;14.50;2.55;;;;;;;10.19;59.46;101096.13;5086415;28;20101;-79
2021/03/14 10:06:06;;;;;;;11.50;3.03;;;;;;;10.44;59.33;101095.81;5085988;28;20440;-81
2021/03/14 10:08:35;;;;;;;9.18;3.08;;;;;;;10.64;58.53;101093.72;5086354;28;20028;-83
2021/03/14 10:13:55;;;;;;;13.30;3.03;;;;;;;10.93;58.43;101100.31;5078242;27;20940;-86
2021/03/14 10:16:24;;;;;;;16.45;3.45;;;;;;;10.70;58.63;101103.31;5060569;28;20492;-84
2021/03/14 10:18:56;;;;;;;13.23;3.10;;;;;;;10.76;58.32;101105.88;5058974;28;20074;-86
2021/03/14 10:21:26;;;;;;;12.82;2.35;;;;;;;11.06;57.83;101111.56;5059280;28;20037;-86
2021/03/14 10:24:13;;;;;;;21.60;5.55;;;;;;;10.76;57.68;101118.28;5056714;28;20119;-85
2021/03/14 10:27:00;;;;;;;18.88;3.38;;;;;;;10.54;58.18;101117.72;5062109;28;20052;-86
2021/03/14 10:29:53;;;;;;;7.45;1.98;;;;;;;10.79;57.65;101118.22;5060287;28;20033;-89
2021/03/14 10:32:21;;;;;;;16.77;2.83;;;;;;;10.60;58.13;101117.63;5062104;28;20033;-86
2021/03/14 10:34:51;;;;;;;11.40;2.88;;;;;;;10.64;58.04;101120.22;5062168;28;20029;-85
2021/03/14 10:37:29;;;;;;;13.45;2.55;;;;;;;10.77;57.05;101130.63;5062327;28;20036;-85
2021/03/14 10:39:58;;;;;;;25.38;8.30;;;;;;;10.85;57.29;101126.06;5050098;28;20029;-85
2021/03/14 10:42:49;;;;;;;15.25;2.65;;;;;;;10.49;56.81;101142.53;5059175;28;20575;-88
2021/03/14 10:45:18;;;;;;;9.93;2.25;;;;;;;10.78;56.93;101140.31;5069905;28;20498;-83
2021/03/14 10:47:57;;;;;;;10.15;2.22;;;;;;;10.79;56.69;101140.31;5060741;28;20032;-83
2021/03/14 10:50:27;;;;;;;13.18;3.08;;;;;;;10.82;56.71;101142.03;5069916;28;20078;-82
2021/03/14 10:53:12;;;;;;;19.10;3.70;;;;;;;11.02;55.99;101147.00;5058538;28;20068;-81
2021/03/14 10:55:40;;;;;;;15.30;3.10;;;;;;;10.84;56.03;101149.06;5058375;28;20094;-80
2021/03/14 10:58:08;;;;;;;7.43;2.22;;;;;;;10.84;55.70;101169.38;5055783;28;20021;-84
2021/03/14 11:00:37;;;;;;;14.23;2.25;;;;;;;10.80;55.63;101162.38;5059310;28;20031;-83
2021/03/14 11:03:13;;;;;;;10.05;3.10;;;;;;;11.00;55.31;101165.59;5060466;28;20059;-85
2021/03/14 11:05:42;;;;;;;13.18;2.47;;;;;;;10.99;55.29;101185.03;5056236;28;20028;-84
2021/03/14 11:08:08;;;;;;;14.77;2.33;;;;;;;10.87;55.37;101185.22;5058262;28;20032;-80
2021/03/14 11:10:35;;;;;;;14.40;2.03;;;;;;;10.73;55.33;101177.50;5057584;28;20126;-82
2021/03/14 11:13:15;;;;;;;10.15;2.83;;;;;;;10.42;55.46;101199.13;5055910;28;20071;-91
2021/03/14 11:15:41;;;;;;;13.65;2.10;;;;;;;10.62;55.31;101200.66;5056809;28;20033;-84
2021/03/14 11:18:21;;;;;;;8.23;2.25;;;;;;;10.62;55.10;101198.84;5059193;28;20039;-91
2021/03/14 11:20:50;;;;;;;10.77;2.33;;;;;;;10.68;55.07;101185.50;5057708;28;20029;-92
2021/03/14 11:23:16;;;;;;;12.57;2.78;;;;;;;10.54;55.49;101213.97;5058598;28;20029;-91
2021/03/14 11:25:43;;;;;;;16.63;3.30;;;;;;;10.83;55.05;101200.31;5047207;28;20040;-91
2021/03/14 11:28:09;;;;;;;11.00;2.47;;;;;;;10.92;55.10;101199.28;5048466;28;20045;-89
2021/03/14 11:30:37;;;;;;;10.65;3.13;;;;;;;10.86;55.28;101204.69;5047319;28;20045;-91
2021/03/14 11:33:04;;;;;;;16.13;2.67;;;;;;;10.91;54.90;101204.63;5046308;28;20033;-84
2021/03/14 11:35:31;;;;;;;16.85;3.63;;;;;;;10.89;54.95;101209.06;5041572;28;20029;-88
2021/03/14 11:37:58;;;;;;;15.43;2.35;;;;;;;10.79;54.68;101214.53;5038353;28;20014;-86
2021/03/14 11:40:24;;;;;;;15.63;2.58;;;;;;;11.13;54.43;101215.78;5042126;28;20033;-84
2021/03/14 11:42:50;;;;;;;13.48;3.10;;;;;;;11.12;54.09;101216.66;5043693;28;20104;-86
2021/03/14 11:45:17;;;;;;;12.43;3.05;;;;;;;11.08;54.67;101214.94;5043191;28;20036;-88
2021/03/14 11:47:44;;;;;;;15.73;2.30;;;;;;;11.24;54.39;101220.88;5046019;28;20025;-90
2021/03/14 11:50:14;;;;;;;12.40;2.65;;;;;;;11.20;53.46;101219.19;5044582;28;20053;-88
2021/03/14 11:52:42;;;;;;;16.88;2.53;;;;;;;11.22;53.48;101218.25;5051383;28;20037;-95
2021/03/14 11:55:09;;;;;;;16.80;2.85;;;;;;;11.24;54.08;101229.72;5076116;22;20067;-85
2021/03/14 11:57:35;;;;;;;10.07;2.45;;;;;;;11.11;53.71;101236.13;5035789;28;20021;-82
2021/03/14 12:00:03;;;;;;;8.85;2.10;;;;;;;11.26;53.63;101227.91;5033801;28;20108;-83
2021/03/14 12:02:29;;;;;;;10.98;2.35;;;;;;;11.43;53.49;101226.75;5033648;28;20112;-83
2021/03/14 12:04:56;;;;;;;21.10;3.38;;;;;;;11.45;53.82;101235.56;5034635;28;20025;-83
2021/03/14 12:07:24;;;;;;;14.50;2.80;;;;;;;11.37;53.67;101229.53;5032131;28;20034;-84
2021/03/14 12:09:51;;;;;;;9.82;2.15;;;;;;;11.33;53.48;101248.13;5031579;28;20133;-82
2021/03/14 12:12:18;;;;;;;11.55;2.30;;;;;;;11.34;52.67;101233.09;5030974;28;20029;-83
2021/03/14 12:14:45;;;;;;;21.95;2.58;;;;;;;11.58;52.71;101237.09;5040276;28;20021;-83
2021/03/14 12:17:11;;;;;;;15.20;2.90;;;;;;;11.93;52.71;101235.56;5031309;28;20021;-83
2021/03/14 12:19:38;;;;;;;16.75;2.55;;;;;;;12.10;52.45;101237.03;5029167;28;20021;-84
2021/03/14 12:22:04;;;;;;;19.27;5.90;;;;;;;12.09;52.41;101244.13;5033210;28;20048;-83
2021/03/14 12:24:31;;;;;;;18.95;3.00;;;;;;;12.03;51.91;101251.38;5040089;28;20053;-84
2021/03/14 12:26:57;;;;;;;17.30;2.20;;;;;;;11.64;51.40;101271.50;5034272;28;20039;-83
2021/03/14 12:29:23;;;;;;;14.27;3.30;;;;;;;11.25;51.59;101283.63;5034950;28;20025;-84
2021/03/14 12:31:50;;;;;;;12.23;2.22;;;;;;;11.08;52.23;101270.63;5027820;28;20100;-84
2021/03/14 12:34:16;;;;;;;14.00;2.13;;;;;;;11.03;52.95;101277.78;5028264;28;20026;-84
2021/03/14 12:36:42;;;;;;;12.18;1.80;;;;;;;11.04;52.94;101277.78;5028650;28;20029;-83